createdAt,value
2023-03-26T00:00:58.141Z,9.02
2023-03-26T00:03:32.923Z,8.85
2023-03-26T00:06:05.602Z,9.05
2023-03-26T00:08:40.343Z,9.50
2023-03-26T00:11:13.251Z,9.40
2023-03-26T00:13:44.216Z,8.10
2023-03-26T00:16:23.605Z,8.32
2023-03-26T00:18:55.671Z,8.55
2023-03-26T00:21:31.610Z,8.02
2023-03-26T00:24:05.238Z,8.25
2023-03-26T00:26:39.595Z,8.07
2023-03-26T00:29:10.887Z,10.07
2023-03-26T00:31:42.414Z,7.75
2023-03-26T00:34:19.660Z,8.63
2023-03-26T00:36:54.732Z,8.73
2023-03-26T00:39:29.623Z,8.95
2023-03-26T00:41:59.509Z,7.80
2023-03-26T00:44:28.958Z,7.72
2023-03-26T00:49:36.040Z,7.07
2023-03-26T00:52:09.588Z,7.88
2023-03-26T00:54:44.473Z,7.90
2023-03-26T00:57:35.016Z,8.15
2023-03-26T01:00:11.872Z,7.70
2023-03-26T01:02:45.645Z,8.25
2023-03-26T01:05:36.892Z,9.07
2023-03-26T01:08:41.025Z,9.18
2023-03-26T01:11:18.964Z,8.25
2023-03-26T01:14:14.050Z,7.55
2023-03-26T01:16:52.615Z,8.30
2023-03-26T01:19:57.417Z,6.22
2023-03-26T01:22:29.940Z,7.07
2023-03-26T01:25:02.706Z,8.50
2023-03-26T01:27:52.418Z,7.38
2023-03-26T01:30:50.062Z,7.88
2023-03-26T01:33:39.131Z,6.07
2023-03-26T01:36:14.101Z,6.75
2023-03-26T01:39:13.980Z,6.70
2023-03-26T01:41:49.685Z,6.88
2023-03-26T01:44:47.072Z,7.32
2023-03-26T01:47:18.611Z,8.13
2023-03-26T01:49:50.173Z,7.10
2023-03-26T01:52:29.868Z,7.30
2023-03-26T01:55:01.710Z,7.05
2023-03-26T01:57:49.275Z,6.47
2023-03-26T02:00:31.325Z,6.80
2023-03-26T02:03:09.330Z,5.88
2023-03-26T02:05:44.876Z,7.30
2023-03-26T02:08:36.124Z,7.15
2023-03-26T02:11:16.015Z,7.38
2023-03-26T02:13:48.230Z,6.95
2023-03-26T02:16:18.577Z,7.03
2023-03-26T02:18:56.268Z,7.20
2023-03-26T02:21:31.939Z,6.80
2023-03-26T02:24:03.580Z,8.25
2023-03-26T02:26:40.503Z,6.57
2023-03-26T02:29:20.822Z,7.60
2023-03-26T02:31:51.949Z,7.57
2023-03-26T02:34:22.165Z,6.85
2023-03-26T02:36:57.711Z,6.93
2023-03-26T02:39:28.549Z,6.13
2023-03-26T02:42:04.805Z,7.30
2023-03-26T02:44:43.351Z,7.38
2023-03-26T02:47:38.405Z,7.65
2023-03-26T02:50:37.363Z,6.50
2023-03-26T02:53:45.276Z,7.40
2023-03-26T02:56:45.437Z,7.85
2023-03-26T02:59:40.800Z,6.45
2023-03-26T03:02:29.881Z,6.07
2023-03-26T03:05:10.196Z,6.80
2023-03-26T03:07:41.433Z,6.65
2023-03-26T03:10:22.344Z,7.07
2023-03-26T03:13:16.827Z,7.03
2023-03-26T03:15:48.332Z,7.20
2023-03-26T03:18:23.797Z,8.68
2023-03-26T03:21:08.138Z,7.07
2023-03-26T03:23:42.894Z,7.53
2023-03-26T03:26:31.778Z,7.90
2023-03-26T03:29:14.396Z,8.30
2023-03-26T03:31:43.922Z,8.63
2023-03-26T03:34:27.296Z,7.97
2023-03-26T03:36:59.739Z,6.47
2023-03-26T03:39:47.193Z,7.55
2023-03-26T03:42:27.856Z,7.43
2023-03-26T03:45:07.758Z,7.47
2023-03-26T03:48:05.031Z,8.48
2023-03-26T03:50:47.057Z,7.65
2023-03-26T03:53:29.337Z,7.13
2023-03-26T03:56:03.378Z,7.72
2023-03-26T04:01:43.866Z,6.38
2023-03-26T04:04:26.043Z,6.45
2023-03-26T04:07:08.444Z,7.15
2023-03-26T04:09:55.334Z,6.13
2023-03-26T04:12:29.264Z,6.30
2023-03-26T04:15:06.565Z,6.38
2023-03-26T04:17:43.202Z,7.25
2023-03-26T04:20:21.484Z,6.43
2023-03-26T04:22:56.752Z,7.40
2023-03-26T04:25:30.974Z,7.68
2023-03-26T04:28:48.462Z,7.03
2023-03-26T04:31:31.519Z,6.72
2023-03-26T04:34:16.736Z,5.93
2023-03-26T04:36:58.511Z,6.57
2023-03-26T04:39:36.395Z,5.97
2023-03-26T04:42:42.179Z,5.90
2023-03-26T04:45:24.424Z,6.95
2023-03-26T04:47:58.983Z,6.25
2023-03-26T04:50:32.750Z,6.57
2023-03-26T04:53:17.767Z,6.82
2023-03-26T04:59:15.993Z,7.35
2023-03-26T05:01:48.803Z,6.13
2023-03-26T05:04:20.683Z,6.00
2023-03-26T05:06:57.213Z,7.00
2023-03-26T05:09:38.738Z,7.10
2023-03-26T05:12:20.234Z,7.05
2023-03-26T05:15:07.506Z,6.93
2023-03-26T05:18:01.880Z,5.97
2023-03-26T05:20:37.414Z,6.57
2023-03-26T05:23:09.008Z,6.47
2023-03-26T05:25:47.654Z,5.97
2023-03-26T05:28:27.009Z,5.85
2023-03-26T05:31:05.901Z,6.15
2023-03-26T05:33:39.576Z,6.90
2023-03-26T05:36:14.787Z,6.82
2023-03-26T05:38:52.689Z,7.20
2023-03-26T05:41:42.840Z,5.82
2023-03-26T05:46:47.347Z,5.65
2023-03-26T05:49:23.020Z,6.00
2023-03-26T05:51:54.338Z,5.80
2023-03-26T05:54:59.799Z,7.20
2023-03-26T05:58:08.929Z,5.30
2023-03-26T06:01:09.107Z,5.97
2023-03-26T06:04:09.595Z,5.50
2023-03-26T06:06:43.211Z,6.22
2023-03-26T06:09:35.041Z,6.32
2023-03-26T06:12:05.644Z,6.47
2023-03-26T06:14:43.325Z,5.97
2023-03-26T06:17:21.111Z,5.38
2023-03-26T06:20:16.344Z,6.03
2023-03-26T06:22:48.456Z,6.20
2023-03-26T06:25:33.189Z,6.53
2023-03-26T06:28:13.429Z,5.70
2023-03-26T06:31:08.859Z,5.97
2023-03-26T06:33:41.583Z,4.57
2023-03-26T06:40:47.274Z,4.72
2023-03-26T06:43:34.175Z,4.10
2023-03-26T06:48:57.067Z,4.57
2023-03-26T06:51:32.743Z,4.60
2023-03-26T06:54:20.468Z,4.53
2023-03-26T06:57:09.979Z,4.40
2023-03-26T07:00:04.860Z,4.63
2023-03-26T07:02:56.964Z,4.97
2023-03-26T07:05:47.458Z,3.92
2023-03-26T07:08:35.218Z,4.50
2023-03-26T07:11:50.583Z,4.25
2023-03-26T07:14:42.946Z,4.60
2023-03-26T07:17:33.189Z,4.15
2023-03-26T07:20:09.448Z,4.43
2023-03-26T07:22:39.939Z,4.72
2023-03-26T07:25:29.994Z,4.32
2023-03-26T07:28:17.659Z,3.92
2023-03-26T07:31:50.498Z,3.60
2023-03-26T07:35:06.474Z,3.60
2023-03-26T07:38:34.963Z,3.10
2023-03-26T07:41:31.843Z,3.50
2023-03-26T07:44:37.644Z,3.45
2023-03-26T07:47:50.147Z,3.80
2023-03-26T07:50:53.152Z,3.47
2023-03-26T07:53:52.423Z,3.95
2023-03-26T07:57:06.513Z,3.30
2023-03-26T08:00:19.864Z,2.75
2023-03-26T08:03:26.448Z,3.95
2023-03-26T08:06:25.132Z,3.67
2023-03-26T08:09:51.802Z,3.88
2023-03-26T08:13:04.092Z,3.22
2023-03-26T08:16:01.640Z,3.40
2023-03-26T08:19:01.893Z,3.55
2023-03-26T08:21:59.100Z,3.28
2023-03-26T08:24:59.938Z,3.17
2023-03-26T08:27:38.424Z,3.28
2023-03-26T08:30:22.993Z,3.72
2023-03-26T08:32:59.037Z,4.07
2023-03-26T08:35:29.199Z,2.60
2023-03-26T08:37:59.331Z,3.80
2023-03-26T08:40:43.864Z,4.00
2023-03-26T08:43:28.344Z,3.65
2023-03-26T08:46:16.245Z,3.35
2023-03-26T08:48:57.526Z,4.35
2023-03-26T08:51:51.645Z,3.63
2023-03-26T08:54:31.684Z,4.45
2023-03-26T08:57:28.773Z,4.00
2023-03-26T09:00:26.967Z,3.22
2023-03-26T09:03:05.181Z,3.40
2023-03-26T09:06:37.479Z,3.30
2023-03-26T09:09:58.659Z,3.63
2023-03-26T09:12:40.499Z,3.60
2023-03-26T09:15:30.258Z,3.78
2023-03-26T09:18:21.166Z,3.55
2023-03-26T09:21:13.922Z,3.28
2023-03-26T09:24:16.249Z,3.10
2023-03-26T09:27:05.969Z,4.43
2023-03-26T09:29:57.319Z,2.92
2023-03-26T09:33:00.116Z,3.40
2023-03-26T09:35:53.360Z,2.97
2023-03-26T09:38:49.296Z,3.20
2023-03-26T09:42:00.932Z,3.20
2023-03-26T09:44:55.389Z,3.42
2023-03-26T09:47:35.409Z,2.72
2023-03-26T09:50:38.788Z,3.17
2023-03-26T09:53:28.827Z,3.50
2023-03-26T09:56:38.379Z,3.08
2023-03-26T09:59:43.975Z,3.15
2023-03-26T10:03:14.449Z,3.70
2023-03-26T10:06:21.766Z,3.00
2023-03-26T10:09:21.928Z,2.97
2023-03-26T10:12:02.448Z,3.15
2023-03-26T10:14:51.426Z,2.88
2023-03-26T10:17:29.417Z,2.90
2023-03-26T10:20:18.208Z,2.58
2023-03-26T10:23:36.326Z,2.53
2023-03-26T10:26:33.925Z,3.22
2023-03-26T10:29:31.389Z,2.47
2023-03-26T10:32:26.369Z,2.72
2023-03-26T10:35:19.659Z,3.33
2023-03-26T10:38:10.769Z,3.03
2023-03-26T10:41:23.369Z,3.20
2023-03-26T10:45:47.135Z,3.15
2023-03-26T10:49:19.579Z,3.22
2023-03-26T10:51:53.895Z,3.45
2023-03-26T10:54:49.601Z,3.67
2023-03-26T10:57:28.135Z,3.92
2023-03-26T11:00:02.435Z,4.45
2023-03-26T11:02:41.723Z,4.15
2023-03-26T11:05:44.970Z,3.55
2023-03-26T11:08:31.085Z,3.70
2023-03-26T11:11:11.765Z,3.42
2023-03-26T11:13:47.322Z,2.90
2023-03-26T11:17:40.454Z,3.15
2023-03-26T11:21:19.510Z,3.00
2023-03-26T11:24:27.570Z,3.15
2023-03-26T11:28:16.995Z,3.40
2023-03-26T11:31:00.400Z,3.55
2023-03-26T11:34:06.598Z,3.70
2023-03-26T11:36:46.798Z,3.83
2023-03-26T11:39:28.183Z,3.60
2023-03-26T11:42:24.923Z,3.97
2023-03-26T11:45:17.581Z,3.70
2023-03-26T11:47:54.912Z,3.53
2023-03-26T11:50:37.095Z,3.53
2023-03-26T11:53:18.366Z,3.60
2023-03-26T11:56:06.080Z,3.75
2023-03-26T11:59:03.037Z,3.08
2023-03-26T12:01:57.557Z,2.55
2023-03-26T12:04:35.628Z,2.90
2023-03-26T12:07:19.354Z,2.88
2023-03-26T12:10:22.762Z,3.78
2023-03-26T12:13:01.535Z,2.75
2023-03-26T12:15:47.261Z,3.25
2023-03-26T12:18:40.460Z,3.25
2023-03-26T12:21:26.597Z,2.63
2023-03-26T12:24:02.368Z,2.38
2023-03-26T12:26:42.507Z,2.83
2023-03-26T12:29:18.079Z,2.50
2023-03-26T12:32:14.396Z,2.97
2023-03-26T12:34:49.789Z,2.55
2023-03-26T12:37:45.190Z,3.20
2023-03-26T12:40:27.811Z,2.60
2023-03-26T12:44:50.583Z,3.03
2023-03-26T12:47:54.410Z,2.53
2023-03-26T12:48:53.536Z,3.20
2023-03-26T12:51:49.749Z,2.90
2023-03-26T12:54:39.819Z,2.92
2023-03-26T12:57:39.561Z,3.10
2023-03-26T13:00:27.854Z,2.70
2023-03-26T13:03:07.731Z,3.00
2023-03-26T13:05:55.272Z,3.03
2023-03-26T13:08:47.155Z,2.88
2023-03-26T13:11:35.214Z,3.17
2023-03-26T13:14:22.927Z,3.00
2023-03-26T13:16:55.548Z,3.40
2023-03-26T13:20:12.860Z,3.25
2023-03-26T13:23:03.000Z,3.97
2023-03-26T13:25:39.621Z,3.58
2023-03-26T13:28:39.009Z,3.50
2023-03-26T13:31:19.253Z,4.13
2023-03-26T13:34:02.657Z,3.83
2023-03-26T13:36:35.177Z,3.80
2023-03-26T13:39:08.701Z,4.13
2023-03-26T13:42:34.252Z,4.28
2023-03-26T13:45:23.101Z,4.40
2023-03-26T13:47:57.249Z,3.47
2023-03-26T13:50:34.776Z,3.72
2023-03-26T13:53:29.614Z,4.35
2023-03-26T13:56:04.142Z,3.75
2023-03-26T13:58:43.333Z,4.00
2023-03-26T14:01:18.070Z,3.95
2023-03-26T14:04:04.770Z,5.20
2023-03-26T14:06:57.882Z,5.38
2023-03-26T14:09:32.407Z,5.47
2023-03-26T14:12:23.526Z,5.25
2023-03-26T14:15:07.860Z,5.18
2023-03-26T14:18:06.537Z,5.97
2023-03-26T14:20:40.685Z,5.38
2023-03-26T14:23:33.573Z,5.70
2023-03-26T14:26:25.885Z,6.60
2023-03-26T14:29:13.171Z,7.50
2023-03-26T14:32:13.193Z,8.35
2023-03-26T14:35:06.461Z,8.45
2023-03-26T14:37:51.440Z,8.48
2023-03-26T14:40:30.368Z,8.45
2023-03-26T14:43:18.429Z,8.48
2023-03-26T14:46:27.247Z,8.65
2023-03-26T14:49:46.493Z,8.48
2023-03-26T14:52:43.799Z,9.65
2023-03-26T14:55:49.553Z,9.43
2023-03-26T14:58:43.772Z,9.05
2023-03-26T15:01:30.337Z,10.48
2023-03-26T15:04:41.266Z,9.20
2023-03-26T15:10:50.357Z,12.68
2023-03-26T15:14:09.243Z,10.60
2023-03-26T15:17:44.465Z,10.57
2023-03-26T15:20:57.496Z,11.90
2023-03-26T15:27:42.923Z,11.27
2023-03-26T15:30:42.728Z,11.45
2023-03-26T15:33:45.667Z,11.52
2023-03-26T15:36:51.500Z,12.00
2023-03-26T15:40:00.023Z,12.63
2023-03-26T15:42:46.494Z,12.68
2023-03-26T15:45:33.702Z,11.85
2023-03-26T15:48:13.629Z,12.55
2023-03-26T15:50:56.259Z,12.70
2023-03-26T15:54:07.996Z,13.82
2023-03-26T15:57:52.407Z,11.85
2023-03-26T16:00:29.779Z,13.10
2023-03-26T16:03:27.028Z,12.25
2023-03-26T16:06:20.251Z,12.48
2023-03-26T16:09:20.390Z,12.23
2023-03-26T16:12:04.438Z,12.98
2023-03-26T16:14:37.245Z,15.45
2023-03-26T16:17:12.677Z,14.20
2023-03-26T16:20:20.495Z,13.93
2023-03-26T16:23:01.191Z,13.40
2023-03-26T16:25:35.950Z,13.88
2023-03-26T16:28:14.286Z,15.25
2023-03-26T16:31:36.689Z,13.85
2023-03-26T16:34:08.033Z,15.20
2023-03-26T16:36:41.119Z,14.80
2023-03-26T16:39:22.791Z,14.48
2023-03-26T16:42:30.512Z,12.50
2023-03-26T16:45:30.458Z,14.43
2023-03-26T16:48:30.768Z,13.13
2023-03-26T16:51:07.945Z,14.10
2023-03-26T16:53:54.194Z,14.00
2023-03-26T16:56:38.440Z,13.27
2023-03-26T16:59:10.593Z,13.15
2023-03-26T17:01:56.718Z,13.88
2023-03-26T17:04:33.475Z,15.18
2023-03-26T17:07:15.040Z,14.45
2023-03-26T17:10:09.360Z,14.48
2023-03-26T17:13:02.244Z,14.05
2023-03-26T17:16:02.147Z,13.50
2023-03-26T17:18:47.474Z,14.60
2023-03-26T17:21:17.710Z,14.10
2023-03-26T17:24:19.440Z,14.30
2023-03-26T17:27:24.409Z,13.10
2023-03-26T17:30:15.910Z,13.90
2023-03-26T17:33:06.474Z,12.82
2023-03-26T17:35:43.317Z,13.15
2023-03-26T17:38:16.706Z,12.27
2023-03-26T17:40:55.317Z,13.25
2023-03-26T17:43:38.603Z,12.68
2023-03-26T17:46:33.657Z,11.88
2023-03-26T17:49:27.694Z,11.68
2023-03-26T17:52:15.896Z,11.88
2023-03-26T17:54:50.458Z,10.57
2023-03-26T17:57:34.237Z,11.30
2023-03-26T18:00:09.553Z,9.93
2023-03-26T18:02:48.182Z,10.50
2023-03-26T18:05:22.360Z,9.65
2023-03-26T18:08:15.282Z,9.80
2023-03-26T18:10:58.132Z,9.05
2023-03-26T18:13:48.502Z,7.88
2023-03-26T18:16:22.087Z,7.47
2023-03-26T18:19:00.157Z,6.75
2023-03-26T18:21:33.246Z,7.82
2023-03-26T18:24:08.208Z,6.43
2023-03-26T18:26:46.241Z,5.60
2023-03-26T18:29:28.477Z,5.68
2023-03-26T18:32:22.935Z,7.20
2023-03-26T18:35:21.226Z,6.13
2023-03-26T18:37:54.671Z,7.05
2023-03-26T18:40:40.461Z,6.93
2023-03-26T18:43:34.341Z,6.25
2023-03-26T18:46:05.873Z,5.95
2023-03-26T18:48:37.516Z,5.68
2023-03-26T18:51:09.834Z,5.53
2023-03-26T18:53:45.765Z,5.95
2023-03-26T18:56:30.343Z,5.90
2023-03-26T18:59:03.296Z,5.30
2023-03-26T19:01:36.058Z,5.95
2023-03-26T19:04:12.569Z,6.38
2023-03-26T19:06:43.930Z,5.68
2023-03-26T19:09:30.320Z,5.78
2023-03-26T19:12:24.265Z,5.45
2023-03-26T19:15:14.685Z,5.55
2023-03-26T19:17:56.736Z,6.28
2023-03-26T19:20:29.714Z,5.85
2023-03-26T19:23:02.498Z,5.30
2023-03-26T19:25:48.105Z,5.45
2023-03-26T19:28:32.240Z,5.70
2023-03-26T19:31:26.682Z,5.75
2023-03-26T19:34:26.801Z,5.60
2023-03-26T19:37:30.414Z,5.30
2023-03-26T19:40:40.062Z,4.90
2023-03-26T19:43:27.778Z,5.95
2023-03-26T19:46:02.508Z,6.57
2023-03-26T19:48:46.839Z,6.38
2023-03-26T19:51:29.330Z,6.43
2023-03-26T19:54:04.912Z,7.20
2023-03-26T19:59:30.812Z,8.73
2023-03-26T20:02:19.311Z,8.20
2023-03-26T20:04:49.262Z,7.72
2023-03-26T20:07:22.835Z,7.82
2023-03-26T20:10:08.573Z,8.88
2023-03-26T20:12:37.908Z,8.13
2023-03-26T20:15:29.141Z,8.07
2023-03-26T20:17:58.417Z,9.18
2023-03-26T20:20:28.470Z,8.48
2023-03-26T20:23:00.111Z,8.95
2023-03-26T20:25:46.936Z,7.20
2023-03-26T20:28:20.909Z,6.90
2023-03-26T20:30:52.571Z,7.57
2023-03-26T20:33:27.282Z,7.72
2023-03-26T20:36:02.359Z,7.03
2023-03-26T20:38:39.537Z,6.75
2023-03-26T20:41:20.548Z,6.57
2023-03-26T20:43:57.476Z,6.35
2023-03-26T20:46:31.639Z,5.47
2023-03-26T20:49:07.238Z,5.70
2023-03-26T20:51:42.593Z,4.60
2023-03-26T20:54:20.708Z,3.78
2023-03-26T20:56:54.018Z,4.93
2023-03-26T20:59:28.399Z,3.88
2023-03-26T21:02:00.677Z,3.58
2023-03-26T21:04:35.517Z,3.33
2023-03-26T21:07:18.630Z,3.60
2023-03-26T21:09:54.503Z,3.22
2023-03-26T21:12:33.988Z,3.60
2023-03-26T21:15:13.420Z,3.13
2023-03-26T21:17:57.069Z,3.67
2023-03-26T21:20:33.945Z,3.13
2023-03-26T21:23:24.144Z,3.53
2023-03-26T21:26:18.445Z,3.90
2023-03-26T21:28:55.021Z,4.03
2023-03-26T21:31:27.078Z,3.80
2023-03-26T21:33:58.793Z,4.10
2023-03-26T21:36:32.946Z,3.85
2023-03-26T21:39:07.509Z,3.35
2023-03-26T21:42:20.913Z,4.50
2023-03-26T21:45:05.415Z,4.80
2023-03-26T21:47:34.769Z,4.20
2023-03-26T21:50:07.239Z,4.70
2023-03-26T21:52:48.976Z,4.68
2023-03-26T21:55:23.911Z,4.90
2023-03-26T21:57:56.460Z,4.68
2023-03-26T22:00:42.822Z,4.68
2023-03-26T22:03:15.521Z,4.57
2023-03-26T22:05:54.043Z,5.22
2023-03-26T22:08:39.370Z,3.63
2023-03-26T22:11:21.752Z,4.30
2023-03-26T22:13:56.238Z,3.72
2023-03-26T22:16:30.544Z,3.90
2023-03-26T22:19:02.201Z,3.88
2023-03-26T22:21:36.418Z,3.35
2023-03-26T22:24:10.724Z,3.35
2023-03-26T22:26:42.306Z,3.38
2023-03-26T22:29:15.434Z,3.22
2023-03-26T22:31:49.785Z,3.17
2023-03-26T22:34:23.530Z,3.03
2023-03-26T22:36:54.839Z,2.83
2023-03-26T22:39:23.908Z,3.38
2023-03-26T22:41:58.445Z,2.80
2023-03-26T22:44:33.761Z,2.80
2023-03-26T22:47:05.651Z,3.22
2023-03-26T22:49:35.457Z,3.15
2023-03-26T22:52:05.463Z,3.65
2023-03-26T22:54:39.198Z,2.83
2023-03-26T22:57:10.773Z,2.83
2023-03-26T22:59:40.462Z,3.53
2023-03-26T23:02:13.540Z,2.78
2023-03-26T23:04:46.854Z,2.63
2023-03-26T23:07:19.047Z,2.72
2023-03-26T23:09:53.555Z,2.78
2023-03-26T23:12:25.820Z,3.00
2023-03-26T23:14:58.762Z,2.72
2023-03-26T23:17:32.477Z,2.70
2023-03-26T23:20:23.466Z,3.95
2023-03-26T23:22:56.547Z,2.90
2023-03-26T23:25:25.777Z,2.80
2023-03-26T23:27:58.027Z,2.72
2023-03-26T23:30:29.118Z,2.88
2023-03-26T23:33:00.464Z,2.70
2023-03-26T23:35:32.146Z,2.47
2023-03-26T23:38:02.760Z,2.40
2023-03-26T23:40:34.863Z,3.17
2023-03-26T23:43:04.008Z,2.15
2023-03-26T23:45:38.446Z,2.30
2023-03-26T23:48:14.631Z,2.35
2023-03-26T23:50:51.365Z,2.60
2023-03-26T23:53:26.505Z,2.22
2023-03-26T23:56:00.439Z,2.53
2023-03-26T23:58:33.890Z,2.20
